createdAt,value
2022-11-29T00:00:53.760Z,69.10
2022-11-29T00:01:53.944Z,59.10
2022-11-29T00:02:53.953Z,59.40
2022-11-29T00:03:53.709Z,69.00
2022-11-29T00:04:53.729Z,72.00
2022-11-29T00:05:53.710Z,66.40
2022-11-29T00:06:53.727Z,63.80
2022-11-29T00:07:53.874Z,68.70
2022-11-29T00:08:53.763Z,60.30
2022-11-29T00:09:53.730Z,63.80
2022-11-29T00:10:53.726Z,61.70
2022-11-29T00:11:53.715Z,55.60
2022-11-29T00:12:53.766Z,67.00
2022-11-29T00:13:53.748Z,67.30
2022-11-29T00:14:53.769Z,56.10
2022-11-29T00:15:53.745Z,55.40
2022-11-29T00:16:53.835Z,61.60
2022-11-29T00:17:53.887Z,61.10
2022-11-29T00:18:53.799Z,65.60
2022-11-29T00:19:53.782Z,75.70
2022-11-29T00:20:53.779Z,62.50
2022-11-29T00:21:53.764Z,67.10
2022-11-29T00:22:53.765Z,77.00
2022-11-29T00:23:53.762Z,67.00
2022-11-29T00:24:53.784Z,69.40
2022-11-29T00:25:53.760Z,72.10
2022-11-29T00:26:53.780Z,79.80
2022-11-29T00:27:53.770Z,68.90
2022-11-29T00:28:53.957Z,85.00
2022-11-29T00:29:53.767Z,74.00
2022-11-29T00:30:54.270Z,91.80
2022-11-29T00:31:53.961Z,79.30
2022-11-29T00:32:57.685Z,81.70
2022-11-29T00:34:02.713Z,76.10
2022-11-29T00:35:08.129Z,95.30
2022-11-29T00:36:02.764Z,85.90
2022-11-29T00:37:02.779Z,76.90
2022-11-29T00:38:02.739Z,63.80
2022-11-29T00:39:02.774Z,71.90
2022-11-29T00:40:02.743Z,67.50
2022-11-29T00:41:02.748Z,71.40
2022-11-29T00:42:02.853Z,79.90
2022-11-29T00:43:02.739Z,76.60
2022-11-29T00:44:02.718Z,70.30
2022-11-29T00:45:02.712Z,69.40
2022-11-29T00:46:02.720Z,69.60
2022-11-29T00:47:02.695Z,69.70
2022-11-29T00:48:02.699Z,68.30
2022-11-29T00:49:02.678Z,72.50
2022-11-29T00:50:02.685Z,68.70
2022-11-29T00:51:02.663Z,81.20
2022-11-29T00:52:02.657Z,66.30
2022-11-29T00:53:02.649Z,69.80
2022-11-29T00:54:02.745Z,61.60
2022-11-29T00:55:02.647Z,68.10
2022-11-29T00:56:02.636Z,70.30
2022-11-29T00:57:02.640Z,77.90
2022-11-29T00:58:02.612Z,68.10
2022-11-29T00:59:02.622Z,71.40
2022-11-29T01:00:02.609Z,65.30
2022-11-29T01:01:02.655Z,60.80
2022-11-29T01:02:03.041Z,59.90
2022-11-29T01:03:02.591Z,60.00
2022-11-29T01:04:02.576Z,71.80
2022-11-29T01:05:02.572Z,79.00
2022-11-29T01:06:02.696Z,73.10
2022-11-29T01:07:02.567Z,76.60
2022-11-29T01:08:02.575Z,70.40
2022-11-29T01:09:02.580Z,67.90
2022-11-29T01:10:02.565Z,64.60
2022-11-29T01:11:08.565Z,66.60
2022-11-29T01:12:08.572Z,73.80
2022-11-29T01:13:08.546Z,83.10
2022-11-29T01:14:08.579Z,75.80
2022-11-29T01:15:08.530Z,68.90
2022-11-29T01:16:08.590Z,72.40
2022-11-29T01:17:08.601Z,89.60
2022-11-29T01:18:08.563Z,71.80
2022-11-29T01:19:08.524Z,64.80
2022-11-29T01:20:08.548Z,67.80
2022-11-29T01:21:08.516Z,70.40
2022-11-29T01:22:08.973Z,71.60
2022-11-29T01:23:08.520Z,65.20
2022-11-29T01:24:08.550Z,62.40
2022-11-29T01:25:08.522Z,67.10
2022-11-29T01:26:08.538Z,69.60
2022-11-29T01:27:08.525Z,89.20
2022-11-29T01:28:08.671Z,96.00
2022-11-29T01:29:08.499Z,69.30
2022-11-29T01:30:08.525Z,71.30
2022-11-29T01:31:08.548Z,68.10
2022-11-29T01:32:08.510Z,67.10
2022-11-29T01:33:08.580Z,69.40
2022-11-29T01:34:08.701Z,62.50
2022-11-29T01:35:13.407Z,62.40
2022-11-29T01:36:13.494Z,68.50
2022-11-29T01:37:13.513Z,69.10
2022-11-29T01:38:13.485Z,67.40
2022-11-29T01:39:13.534Z,63.70
2022-11-29T01:40:13.481Z,69.20
2022-11-29T01:41:13.532Z,66.40
2022-11-29T01:42:13.487Z,65.60
2022-11-29T01:43:13.580Z,65.30
2022-11-29T01:44:13.509Z,64.70
2022-11-29T01:45:13.545Z,77.10
2022-11-29T01:46:13.540Z,69.10
2022-11-29T01:47:13.500Z,78.90
2022-11-29T01:48:13.472Z,74.20
2022-11-29T01:49:13.515Z,64.20
2022-11-29T01:50:13.471Z,71.70
2022-11-29T01:51:13.530Z,75.70
2022-11-29T01:52:13.468Z,67.10
2022-11-29T01:53:13.490Z,67.00
2022-11-29T01:54:13.611Z,79.00
2022-11-29T01:55:13.491Z,60.80
2022-11-29T01:56:13.492Z,61.30
2022-11-29T01:57:13.500Z,62.80
2022-11-29T01:58:13.468Z,67.70
2022-11-29T01:59:13.480Z,62.90
2022-11-29T02:00:13.453Z,70.70
2022-11-29T02:01:13.501Z,70.70
2022-11-29T02:02:13.495Z,73.90
2022-11-29T02:03:13.476Z,71.90
2022-11-29T02:04:13.457Z,67.10
2022-11-29T02:05:13.473Z,86.80
2022-11-29T02:06:13.446Z,85.80
2022-11-29T02:07:13.465Z,68.30
2022-11-29T02:08:13.447Z,65.60
2022-11-29T02:09:13.565Z,68.40
2022-11-29T02:10:13.427Z,75.70
2022-11-29T02:11:13.459Z,75.30
2022-11-29T02:12:13.411Z,61.60
2022-11-29T02:13:13.431Z,77.10
2022-11-29T02:14:13.404Z,71.50
2022-11-29T02:15:13.448Z,73.20
2022-11-29T02:16:13.483Z,75.50
2022-11-29T02:17:13.403Z,64.70
2022-11-29T02:18:13.380Z,74.90
2022-11-29T02:19:13.392Z,68.90
2022-11-29T02:22:07.316Z,66.50
2022-11-29T02:23:07.373Z,77.80
2022-11-29T02:24:07.332Z,80.20
2022-11-29T02:25:07.371Z,75.70
2022-11-29T02:26:07.338Z,63.10
2022-11-29T02:27:07.397Z,80.20
2022-11-29T02:28:07.338Z,80.00
2022-11-29T02:29:07.344Z,72.80
2022-11-29T02:30:07.327Z,85.80
2022-11-29T02:31:07.391Z,83.90
2022-11-29T02:32:07.324Z,85.10
2022-11-29T02:33:07.464Z,81.60
2022-11-29T02:34:07.317Z,86.00
2022-11-29T02:35:07.329Z,86.60
2022-11-29T02:36:07.330Z,85.70
2022-11-29T02:37:11.429Z,82.40
2022-11-29T02:38:07.481Z,76.80
2022-11-29T02:39:07.450Z,88.80
2022-11-29T02:40:07.310Z,76.60
2022-11-29T02:41:07.318Z,70.70
2022-11-29T02:42:07.299Z,75.40
2022-11-29T02:43:07.347Z,79.40
2022-11-29T02:44:07.316Z,73.50
2022-11-29T02:45:07.375Z,65.60
2022-11-29T02:46:07.363Z,67.60
2022-11-29T02:47:07.339Z,71.40
2022-11-29T02:48:07.311Z,74.70
2022-11-29T02:49:07.486Z,67.40
2022-11-29T02:50:07.303Z,68.20
2022-11-29T02:51:07.355Z,59.90
2022-11-29T02:52:07.282Z,60.70
2022-11-29T02:53:07.292Z,68.60
2022-11-29T02:54:07.274Z,66.50
2022-11-29T02:55:07.345Z,61.40
2022-11-29T02:56:07.284Z,61.00
2022-11-29T02:57:07.390Z,64.60
2022-11-29T02:58:07.259Z,63.90
2022-11-29T02:59:07.291Z,67.20
2022-11-29T03:00:07.282Z,74.90
2022-11-29T03:01:07.313Z,81.20
2022-11-29T03:02:07.323Z,67.30
2022-11-29T03:03:07.324Z,70.80
2022-11-29T03:04:07.278Z,61.80
2022-11-29T03:05:07.278Z,69.60
2022-11-29T03:06:07.274Z,68.70
2022-11-29T03:07:07.292Z,69.60
2022-11-29T03:08:07.248Z,83.10
2022-11-29T03:09:07.295Z,64.00
2022-11-29T03:10:07.255Z,60.40
2022-11-29T03:11:07.389Z,63.20
2022-11-29T03:12:07.254Z,60.80
2022-11-29T03:13:07.312Z,59.60
2022-11-29T03:14:07.274Z,60.90
2022-11-29T03:15:07.342Z,63.00
2022-11-29T03:16:07.329Z,68.40
2022-11-29T03:17:07.329Z,67.40
2022-11-29T03:18:07.310Z,58.80
2022-11-29T03:19:07.337Z,57.90
2022-11-29T03:20:07.306Z,57.50
2022-11-29T03:21:07.348Z,61.30
2022-11-29T03:22:07.475Z,64.90
2022-11-29T03:23:07.352Z,59.30
2022-11-29T03:24:07.323Z,69.80
2022-11-29T03:25:07.344Z,62.50
2022-11-29T03:26:07.320Z,66.20
2022-11-29T03:27:07.381Z,66.00
2022-11-29T03:28:07.315Z,64.30
2022-11-29T03:29:07.416Z,74.60
2022-11-29T03:30:07.340Z,64.10
2022-11-29T03:31:07.432Z,59.70
2022-11-29T03:32:07.352Z,80.30
2022-11-29T03:33:07.440Z,82.40
2022-11-29T03:34:07.353Z,81.40
2022-11-29T03:35:12.297Z,78.10
2022-11-29T03:36:12.385Z,62.10
2022-11-29T03:37:12.355Z,68.30
2022-11-29T03:38:12.413Z,68.60
2022-11-29T03:39:12.378Z,67.90
2022-11-29T03:40:12.394Z,80.00
2022-11-29T03:41:12.364Z,83.90
2022-11-29T03:42:12.376Z,85.00
2022-11-29T03:43:12.545Z,99.70
2022-11-29T03:44:12.380Z,90.80
2022-11-29T03:45:12.387Z,74.60
2022-11-29T03:46:12.523Z,71.90
2022-11-29T03:47:12.378Z,68.70
2022-11-29T03:48:12.430Z,69.30
2022-11-29T03:49:12.389Z,79.10
2022-11-29T03:50:12.408Z,74.30
2022-11-29T03:51:12.396Z,67.40
2022-11-29T03:52:17.468Z,70.50
2022-11-29T03:53:17.464Z,64.60
2022-11-29T03:54:17.402Z,62.10
2022-11-29T03:55:17.440Z,59.00
2022-11-29T03:56:17.398Z,59.20
2022-11-29T03:57:17.413Z,59.90
2022-11-29T03:58:17.418Z,66.40
2022-11-29T03:59:17.407Z,63.50
2022-11-29T04:00:17.380Z,61.90
2022-11-29T04:01:21.437Z,68.20
2022-11-29T04:02:25.776Z,68.70
2022-11-29T04:03:30.456Z,61.50
2022-11-29T04:04:36.348Z,55.10
2022-11-29T04:05:36.445Z,68.50
2022-11-29T04:06:36.408Z,69.30
2022-11-29T04:07:36.479Z,59.00
2022-11-29T04:08:36.436Z,64.60
2022-11-29T04:09:36.540Z,64.70
2022-11-29T04:10:36.434Z,65.30
2022-11-29T04:11:36.451Z,80.70
2022-11-29T04:12:36.422Z,88.40
2022-11-29T04:13:36.573Z,67.40
2022-11-29T04:14:36.524Z,71.10
2022-11-29T04:15:36.555Z,68.10
2022-11-29T04:16:36.456Z,68.20
2022-11-29T04:17:36.470Z,62.60
2022-11-29T04:18:36.451Z,62.60
2022-11-29T04:19:36.466Z,74.10
2022-11-29T04:20:39.695Z,81.40
2022-11-29T04:21:36.445Z,85.30
2022-11-29T04:22:36.424Z,67.00
2022-11-29T04:23:36.841Z,64.40
2022-11-29T04:24:36.483Z,68.80
2022-11-29T04:25:36.551Z,64.10
2022-11-29T04:26:36.402Z,75.20
2022-11-29T04:27:36.412Z,75.80
2022-11-29T04:28:36.402Z,66.60
2022-11-29T04:29:36.446Z,65.00
2022-11-29T04:30:36.372Z,75.00
2022-11-29T04:31:36.597Z,88.10
2022-11-29T04:32:36.372Z,69.80
2022-11-29T04:33:36.430Z,70.90
2022-11-29T04:34:36.354Z,71.10
2022-11-29T04:35:36.552Z,79.70
2022-11-29T04:36:36.346Z,96.10
2022-11-29T04:37:36.379Z,66.50
2022-11-29T04:38:36.348Z,68.30
2022-11-29T04:39:36.358Z,95.00
2022-11-29T04:40:36.333Z,65.10
2022-11-29T04:41:36.377Z,66.70
2022-11-29T04:42:36.365Z,79.00
2022-11-29T04:43:36.456Z,79.90
2022-11-29T04:44:36.351Z,77.40
2022-11-29T04:45:36.370Z,84.40
2022-11-29T04:46:36.551Z,72.10
2022-11-29T04:47:36.378Z,62.60
2022-11-29T04:48:36.348Z,97.10
2022-11-29T04:49:36.374Z,68.00
2022-11-29T04:50:36.340Z,80.90
2022-11-29T04:51:36.372Z,97.40
2022-11-29T04:52:36.330Z,92.80
2022-11-29T04:53:36.367Z,81.80
2022-11-29T04:54:36.354Z,75.30
2022-11-29T04:55:36.369Z,65.90
2022-11-29T04:56:36.338Z,99.80
2022-11-29T04:57:36.485Z,83.90
2022-11-29T04:58:36.350Z,71.20
2022-11-29T04:59:36.381Z,79.90
2022-11-29T05:00:36.347Z,88.70
2022-11-29T05:01:36.527Z,77.50
2022-11-29T05:02:36.403Z,72.40
2022-11-29T05:03:36.364Z,73.90
2022-11-29T05:04:36.348Z,69.00
2022-11-29T05:05:36.388Z,70.00
2022-11-29T05:06:36.341Z,84.70
2022-11-29T05:07:36.411Z,106.40
2022-11-29T05:08:36.355Z,66.90
2022-11-29T05:09:36.360Z,66.30
2022-11-29T05:10:36.348Z,64.50
2022-11-29T05:11:36.363Z,78.80
2022-11-29T05:12:36.349Z,72.40
2022-11-29T05:13:36.527Z,73.70
2022-11-29T05:14:36.364Z,110.30
2022-11-29T05:15:36.446Z,110.20
2022-11-29T05:16:36.377Z,79.30
2022-11-29T05:17:36.424Z,80.10
2022-11-29T05:18:36.419Z,76.00
2022-11-29T05:19:36.513Z,59.70
2022-11-29T05:20:36.382Z,73.10
2022-11-29T05:21:36.412Z,108.50
2022-11-29T05:22:36.399Z,98.60
2022-11-29T05:23:36.416Z,88.80
2022-11-29T05:24:36.390Z,93.40
2022-11-29T05:25:36.535Z,86.90
2022-11-29T05:26:36.391Z,75.10
2022-11-29T05:27:36.428Z,91.80
2022-11-29T05:28:36.405Z,74.20
2022-11-29T05:29:36.567Z,64.60
2022-11-29T05:30:36.408Z,63.20
2022-11-29T05:31:36.580Z,72.80
2022-11-29T05:32:36.398Z,61.90
2022-11-29T05:33:36.421Z,72.50
2022-11-29T05:34:36.385Z,70.80
2022-11-29T05:35:36.409Z,90.30
2022-11-29T05:36:36.378Z,66.60
2022-11-29T05:37:36.505Z,62.40
2022-11-29T05:40:30.348Z,62.20
2022-11-29T05:41:30.410Z,57.70
2022-11-29T05:42:30.416Z,78.40
2022-11-29T05:43:30.537Z,63.10
2022-11-29T05:44:30.397Z,75.40
2022-11-29T05:45:30.396Z,63.30
2022-11-29T05:46:30.439Z,67.80
2022-11-29T05:47:31.679Z,76.20
2022-11-29T05:48:30.330Z,98.10
2022-11-29T05:49:30.377Z,85.50
2022-11-29T05:50:30.286Z,99.80
2022-11-29T05:51:30.329Z,79.30
2022-11-29T05:52:30.254Z,76.90
2022-11-29T05:53:30.272Z,93.20
2022-11-29T05:54:30.309Z,74.90
2022-11-29T05:55:30.291Z,57.10
2022-11-29T05:56:30.244Z,57.70
2022-11-29T05:57:30.207Z,66.80
2022-11-29T05:58:30.866Z,60.90
2022-11-29T05:59:30.233Z,82.50
2022-11-29T06:00:30.191Z,82.30
2022-11-29T06:01:30.400Z,61.70
2022-11-29T06:02:30.692Z,61.50
2022-11-29T06:03:30.192Z,65.00
2022-11-29T06:04:30.166Z,59.10
2022-11-29T06:05:30.182Z,62.10
2022-11-29T06:06:30.142Z,63.80
2022-11-29T06:07:30.186Z,72.80
2022-11-29T06:08:30.125Z,68.50
2022-11-29T06:09:35.993Z,66.30
2022-11-29T06:10:41.064Z,59.90
2022-11-29T06:11:41.075Z,61.10
2022-11-29T06:12:41.181Z,53.50
2022-11-29T06:13:41.099Z,57.60
2022-11-29T06:14:41.046Z,54.30
2022-11-29T06:15:41.075Z,50.00
2022-11-29T06:16:41.030Z,55.30
2022-11-29T06:17:41.040Z,47.80
2022-11-29T06:18:41.107Z,48.70
2022-11-29T06:19:41.041Z,53.60
2022-11-29T06:20:40.993Z,68.00
2022-11-29T06:21:40.985Z,56.10
2022-11-29T06:22:40.979Z,55.90
2022-11-29T06:23:40.969Z,51.00
2022-11-29T06:24:40.953Z,46.00
2022-11-29T06:25:40.960Z,45.90
2022-11-29T06:26:40.920Z,53.80
2022-11-29T06:27:40.933Z,55.80
2022-11-29T06:28:40.925Z,62.10
2022-11-29T06:29:40.908Z,44.80
2022-11-29T06:30:40.970Z,42.90
2022-11-29T06:31:46.867Z,42.90
2022-11-29T06:32:46.904Z,50.50
2022-11-29T06:33:46.878Z,44.10
2022-11-29T06:34:50.786Z,43.60
2022-11-29T06:35:50.877Z,45.90
2022-11-29T06:36:50.848Z,46.30
2022-11-29T06:37:50.845Z,52.90
2022-11-29T06:38:50.842Z,55.50
2022-11-29T06:39:50.868Z,47.90
2022-11-29T06:40:50.834Z,47.60
2022-11-29T06:41:50.974Z,54.70
2022-11-29T06:42:50.809Z,59.20
2022-11-29T06:43:50.902Z,55.50
2022-11-29T06:44:50.795Z,50.10
2022-11-29T06:45:50.804Z,45.90
2022-11-29T06:46:50.893Z,62.40
2022-11-29T06:47:50.792Z,54.10
2022-11-29T06:48:50.760Z,48.90
2022-11-29T06:49:50.778Z,60.50
2022-11-29T06:50:50.758Z,50.60
2022-11-29T06:51:50.796Z,45.30
2022-11-29T06:52:50.766Z,49.50
2022-11-29T06:53:50.823Z,42.40
2022-11-29T06:54:50.856Z,46.20
2022-11-29T06:55:50.760Z,52.70
2022-11-29T06:56:50.737Z,55.00
2022-11-29T06:57:50.749Z,48.00
2022-11-29T06:58:50.757Z,53.30
2022-11-29T06:59:50.904Z,57.70
2022-11-29T07:00:50.758Z,41.90
2022-11-29T07:01:50.761Z,39.50
2022-11-29T07:02:50.675Z,45.10
2022-11-29T07:03:50.706Z,44.50
2022-11-29T07:04:50.975Z,40.20
2022-11-29T07:05:50.826Z,47.30
2022-11-29T07:06:50.691Z,39.00
2022-11-29T07:07:51.181Z,45.90
2022-11-29T07:08:50.685Z,48.80
2022-11-29T07:09:50.666Z,40.40
2022-11-29T07:10:50.671Z,43.10
2022-11-29T07:11:50.777Z,53.40
2022-11-29T07:12:50.633Z,39.60
2022-11-29T07:13:50.636Z,42.90
2022-11-29T07:14:50.645Z,41.10
2022-11-29T07:15:50.772Z,44.80
2022-11-29T07:16:55.822Z,44.00
2022-11-29T07:17:50.608Z,43.60
2022-11-29T07:18:50.579Z,49.20
2022-11-29T07:19:50.605Z,47.00
2022-11-29T07:20:50.551Z,62.30
2022-11-29T07:21:50.587Z,44.60
2022-11-29T07:22:50.543Z,58.50
2022-11-29T07:23:50.580Z,41.30
2022-11-29T07:24:50.568Z,78.20
2022-11-29T07:25:50.597Z,45.50
2022-11-29T07:26:53.943Z,48.50
2022-11-29T07:27:56.574Z,35.50
2022-11-29T07:28:56.678Z,37.50
2022-11-29T07:29:56.481Z,48.70
2022-11-29T07:30:56.498Z,43.40
2022-11-29T07:31:56.481Z,38.10
2022-11-29T07:33:00.094Z,35.00
2022-11-29T07:33:56.968Z,39.20
2022-11-29T07:34:56.481Z,38.20
2022-11-29T07:35:56.447Z,36.70
2022-11-29T07:36:56.458Z,37.20
2022-11-29T07:37:56.433Z,41.70
2022-11-29T07:38:56.547Z,33.10
2022-11-29T07:39:56.439Z,37.50
2022-11-29T07:40:56.478Z,30.80
2022-11-29T07:41:56.451Z,32.80
2022-11-29T07:42:56.443Z,34.00
2022-11-29T07:43:56.415Z,32.00
2022-11-29T07:44:56.446Z,36.10
2022-11-29T07:45:56.400Z,40.90
2022-11-29T07:46:56.458Z,31.90
2022-11-29T07:47:56.393Z,38.30
2022-11-29T07:49:02.308Z,37.60
2022-11-29T07:50:02.373Z,32.70
2022-11-29T07:51:02.357Z,32.80
2022-11-29T07:52:08.254Z,33.00
2022-11-29T07:53:08.381Z,38.90
2022-11-29T07:54:08.314Z,31.90
2022-11-29T07:55:08.332Z,42.10
2022-11-29T07:56:08.269Z,40.30
2022-11-29T07:57:08.294Z,41.90
2022-11-29T07:58:08.232Z,38.90
2022-11-29T07:59:14.264Z,33.10
2022-11-29T08:00:14.237Z,36.90
2022-11-29T08:01:14.302Z,30.30
2022-11-29T08:02:14.209Z,39.80
2022-11-29T08:03:14.146Z,29.60
2022-11-29T08:04:14.290Z,28.10
2022-11-29T08:05:14.110Z,30.70
2022-11-29T08:06:14.139Z,36.00
2022-11-29T08:07:14.068Z,27.60
2022-11-29T08:08:14.078Z,30.40
2022-11-29T08:09:14.039Z,29.80
2022-11-29T08:10:14.163Z,37.10
2022-11-29T08:11:14.015Z,35.80
2022-11-29T08:12:14.013Z,34.50
2022-11-29T08:13:13.977Z,36.00
2022-11-29T08:14:18.893Z,35.50
2022-11-29T08:15:19.018Z,32.80
2022-11-29T08:16:19.015Z,28.40
2022-11-29T08:17:18.962Z,26.20
2022-11-29T08:18:18.929Z,27.40
2022-11-29T08:19:23.888Z,27.30
2022-11-29T08:20:24.065Z,26.60
2022-11-29T08:21:23.910Z,30.00
2022-11-29T08:22:23.933Z,30.00
2022-11-29T08:23:23.878Z,28.50
2022-11-29T08:24:23.877Z,27.90
2022-11-29T08:25:23.844Z,29.40
2022-11-29T08:26:28.223Z,36.90
2022-11-29T08:27:23.812Z,35.20
2022-11-29T08:28:23.864Z,29.40
2022-11-29T08:29:23.812Z,30.90
2022-11-29T08:30:23.864Z,28.70
2022-11-29T08:31:23.859Z,34.10
2022-11-29T08:32:23.948Z,30.70
2022-11-29T08:33:23.816Z,28.20
2022-11-29T08:34:23.793Z,30.30
2022-11-29T08:35:23.767Z,29.20
2022-11-29T08:36:23.783Z,29.50
2022-11-29T08:37:23.763Z,29.70
2022-11-29T08:38:23.780Z,27.10
2022-11-29T08:39:23.752Z,27.70
2022-11-29T08:40:23.808Z,29.10
2022-11-29T08:41:23.716Z,26.50
2022-11-29T08:42:23.839Z,26.80
2022-11-29T08:43:23.697Z,26.20
2022-11-29T08:44:23.762Z,27.90
2022-11-29T08:45:23.794Z,27.70
2022-11-29T08:46:23.800Z,28.50
2022-11-29T08:47:23.702Z,27.60
2022-11-29T08:48:23.722Z,29.30
2022-11-29T08:49:23.694Z,28.40
2022-11-29T08:50:23.877Z,27.30
2022-11-29T08:51:23.688Z,25.60
2022-11-29T08:52:23.693Z,25.80
2022-11-29T08:53:23.815Z,25.60
2022-11-29T08:54:23.693Z,26.50
2022-11-29T08:55:23.747Z,29.60
2022-11-29T08:57:16.748Z,27.00
2022-11-29T08:57:40.239Z,24.60
2022-11-29T08:58:23.690Z,26.30
2022-11-29T08:59:23.676Z,32.30
2022-11-29T09:00:23.774Z,30.00
2022-11-29T09:01:23.772Z,28.60
2022-11-29T09:02:23.832Z,31.40
2022-11-29T09:03:23.651Z,28.50
2022-11-29T09:04:23.763Z,26.60
2022-11-29T09:05:23.627Z,29.10
2022-11-29T09:06:23.636Z,29.20
2022-11-29T09:07:23.626Z,30.40
2022-11-29T09:08:23.637Z,29.00
2022-11-29T09:09:23.603Z,28.30
2022-11-29T09:10:23.580Z,31.00
2022-11-29T09:11:23.555Z,30.90
2022-11-29T09:12:23.569Z,32.70
2022-11-29T09:13:23.546Z,34.60
2022-11-29T09:14:23.662Z,30.10
2022-11-29T09:15:23.579Z,29.20
2022-11-29T09:16:28.484Z,40.90
2022-11-29T09:17:34.451Z,29.30
2022-11-29T09:18:34.536Z,28.60
2022-11-29T09:19:34.623Z,31.50
2022-11-29T09:20:34.539Z,27.20
2022-11-29T09:21:34.520Z,23.60
2022-11-29T09:22:34.532Z,27.50
2022-11-29T09:23:34.516Z,25.30
2022-11-29T09:24:34.542Z,26.00
2022-11-29T09:25:34.686Z,22.70
2022-11-29T09:26:34.572Z,23.00
2022-11-29T09:27:34.541Z,22.40
2022-11-29T09:28:34.537Z,25.00
2022-11-29T09:29:34.531Z,24.20
2022-11-29T09:30:34.565Z,24.60
2022-11-29T09:31:35.041Z,26.20
2022-11-29T09:32:34.619Z,26.30
2022-11-29T09:33:34.547Z,25.50
2022-11-29T09:34:34.594Z,26.20
2022-11-29T09:35:34.568Z,29.80
2022-11-29T09:36:34.620Z,27.90
2022-11-29T09:37:34.564Z,27.50
2022-11-29T09:38:34.596Z,27.40
2022-11-29T09:39:34.587Z,26.90
2022-11-29T09:40:34.592Z,26.60
2022-11-29T09:41:34.576Z,25.60
2022-11-29T09:42:34.605Z,29.00
2022-11-29T09:43:34.575Z,24.40
2022-11-29T09:44:34.565Z,26.70
2022-11-29T09:45:34.615Z,25.30
2022-11-29T09:46:34.564Z,27.10
2022-11-29T09:47:34.648Z,27.70
2022-11-29T09:48:34.566Z,25.40
2022-11-29T09:49:34.543Z,24.70
2022-11-29T09:50:34.578Z,27.20
2022-11-29T09:51:35.960Z,25.20
2022-11-29T09:52:34.553Z,23.80
2022-11-29T09:53:34.530Z,25.80
2022-11-29T09:54:34.667Z,24.70
2022-11-29T09:55:34.510Z,24.40
2022-11-29T09:56:34.529Z,23.70
2022-11-29T09:57:34.543Z,25.40
2022-11-29T09:58:34.667Z,25.00
2022-11-29T09:59:34.517Z,22.60
2022-11-29T10:00:34.534Z,23.50
2022-11-29T10:01:34.619Z,23.40
2022-11-29T10:02:34.581Z,22.70
2022-11-29T10:05:28.478Z,22.40
2022-11-29T10:06:28.668Z,21.00
2022-11-29T10:07:28.634Z,22.50
2022-11-29T10:08:33.468Z,22.30
2022-11-29T10:09:34.189Z,22.40
2022-11-29T10:10:33.547Z,22.90
2022-11-29T10:11:33.581Z,24.00
2022-11-29T10:12:33.553Z,24.00
2022-11-29T10:13:33.583Z,25.50
2022-11-29T10:14:33.554Z,24.90
2022-11-29T10:15:33.585Z,25.00
2022-11-29T10:16:33.616Z,24.00
2022-11-29T10:17:33.625Z,24.60
2022-11-29T10:18:33.606Z,26.70
2022-11-29T10:19:33.625Z,27.00
2022-11-29T10:20:37.942Z,25.20
2022-11-29T10:21:33.614Z,25.30
2022-11-29T10:22:33.599Z,26.00
2022-11-29T10:23:33.725Z,25.30
2022-11-29T10:24:33.638Z,27.90
2022-11-29T10:25:33.655Z,27.80
2022-11-29T10:26:35.185Z,28.70
2022-11-29T10:27:33.664Z,26.10
2022-11-29T10:28:33.669Z,26.40
2022-11-29T10:29:33.802Z,27.60
2022-11-29T10:30:33.682Z,27.40
2022-11-29T10:31:33.667Z,27.40
2022-11-29T10:32:33.660Z,27.70
2022-11-29T10:33:33.675Z,29.00
2022-11-29T10:34:33.665Z,28.30
2022-11-29T10:35:33.814Z,29.00
2022-11-29T10:36:33.667Z,29.00
2022-11-29T10:37:33.696Z,29.00
2022-11-29T10:38:33.685Z,29.10
2022-11-29T10:39:33.833Z,30.40
2022-11-29T10:40:33.697Z,29.80
2022-11-29T10:41:33.846Z,32.40
2022-11-29T10:42:33.701Z,28.70
2022-11-29T10:43:33.727Z,28.70
2022-11-29T10:44:33.717Z,29.40
2022-11-29T10:45:33.764Z,28.80
2022-11-29T10:46:33.787Z,32.30
2022-11-29T10:47:33.874Z,30.70
2022-11-29T10:48:33.756Z,34.80
2022-11-29T10:49:33.783Z,29.80
2022-11-29T10:50:33.785Z,30.10
2022-11-29T10:51:33.774Z,29.20
2022-11-29T10:52:33.785Z,30.60
2022-11-29T10:53:33.957Z,29.00
2022-11-29T10:54:33.788Z,30.70
2022-11-29T10:55:33.809Z,32.50
2022-11-29T10:56:33.810Z,29.80
2022-11-29T10:57:33.837Z,28.90
2022-11-29T10:58:33.839Z,30.70
2022-11-29T10:59:33.870Z,30.50
2022-11-29T11:00:33.991Z,29.30
2022-11-29T11:01:33.948Z,31.40
2022-11-29T11:02:33.869Z,30.50
2022-11-29T11:03:33.888Z,28.80
2022-11-29T11:04:33.852Z,32.00
2022-11-29T11:05:39.888Z,32.00
2022-11-29T11:06:39.898Z,30.70
2022-11-29T11:07:39.969Z,32.30
2022-11-29T11:08:39.887Z,31.50
2022-11-29T11:09:39.902Z,32.10
2022-11-29T11:10:40.067Z,34.30
2022-11-29T11:11:39.911Z,31.20
2022-11-29T11:12:39.914Z,32.10
2022-11-29T11:13:39.875Z,30.30
2022-11-29T11:14:39.916Z,34.00
2022-11-29T11:15:39.884Z,34.30
2022-11-29T11:16:39.960Z,31.20
2022-11-29T11:17:39.888Z,31.40
2022-11-29T11:18:39.932Z,31.30
2022-11-29T11:19:39.919Z,31.40
2022-11-29T11:20:44.935Z,35.10
2022-11-29T11:21:50.866Z,30.80
2022-11-29T11:22:50.996Z,32.30
2022-11-29T11:23:50.970Z,31.00
2022-11-29T11:24:50.992Z,32.60
2022-11-29T11:25:50.975Z,33.00
2022-11-29T11:26:51.018Z,31.60
2022-11-29T11:27:51.049Z,32.00
2022-11-29T11:28:51.063Z,30.80
2022-11-29T11:29:51.226Z,29.60
2022-11-29T11:30:51.294Z,28.80
2022-11-29T11:31:51.111Z,30.90
2022-11-29T11:32:51.203Z,28.70
2022-11-29T11:33:51.131Z,30.60
2022-11-29T11:34:51.221Z,28.60
2022-11-29T11:35:51.318Z,30.60
2022-11-29T11:36:51.217Z,29.20
2022-11-29T11:37:51.230Z,30.40
2022-11-29T11:38:51.256Z,29.90
2022-11-29T11:39:51.282Z,29.60
2022-11-29T11:40:58.150Z,32.20
2022-11-29T11:41:56.298Z,29.60
2022-11-29T11:42:56.296Z,30.40
2022-11-29T11:43:56.309Z,30.50
2022-11-29T11:44:56.327Z,28.30
2022-11-29T11:45:56.532Z,29.50
2022-11-29T11:46:56.341Z,33.40
2022-11-29T11:47:56.400Z,30.00
2022-11-29T11:48:56.396Z,30.20
2022-11-29T11:50:01.294Z,28.60
2022-11-29T11:51:01.541Z,29.50
2022-11-29T11:52:01.434Z,28.00
2022-11-29T11:53:01.474Z,29.70
2022-11-29T11:54:01.471Z,29.90
2022-11-29T11:55:01.546Z,29.60
2022-11-29T11:56:01.531Z,31.40
2022-11-29T11:57:01.577Z,30.20
2022-11-29T11:58:09.042Z,29.20
2022-11-29T11:59:01.592Z,28.90
2022-11-29T12:00:06.611Z,30.90
2022-11-29T12:01:04.412Z,30.90
2022-11-29T12:02:01.762Z,29.80
2022-11-29T12:03:01.804Z,29.20
2022-11-29T12:04:01.643Z,29.40
2022-11-29T12:05:01.663Z,29.70
2022-11-29T12:06:01.655Z,27.20
2022-11-29T12:07:01.679Z,30.60
2022-11-29T12:08:08.362Z,26.70
2022-11-29T12:09:01.715Z,27.20
2022-11-29T12:10:01.720Z,27.40
2022-11-29T12:11:07.032Z,26.80
2022-11-29T12:12:01.759Z,25.30
2022-11-29T12:13:01.788Z,28.50
2022-11-29T12:14:01.922Z,26.90
2022-11-29T12:15:01.845Z,25.10
2022-11-29T12:16:01.861Z,25.60
2022-11-29T12:17:06.738Z,27.00
2022-11-29T12:18:12.788Z,24.90
2022-11-29T12:19:17.900Z,25.50
2022-11-29T12:20:22.809Z,25.90
2022-11-29T12:21:23.062Z,27.50
2022-11-29T12:22:22.936Z,24.70
2022-11-29T12:23:27.831Z,25.80
2022-11-29T12:24:27.983Z,27.90
2022-11-29T12:25:27.951Z,27.70
2022-11-29T12:26:56.290Z,26.40
2022-11-29T12:27:31.972Z,26.00
2022-11-29T12:28:31.967Z,21.60
2022-11-29T12:29:32.109Z,23.40
2022-11-29T12:30:31.969Z,23.60
2022-11-29T12:31:32.217Z,24.50
2022-11-29T12:32:32.010Z,24.70
2022-11-29T12:33:31.993Z,26.20
2022-11-29T12:34:32.004Z,25.20
2022-11-29T12:35:32.152Z,25.50
2022-11-29T12:36:32.041Z,24.30
2022-11-29T12:37:32.085Z,23.40
2022-11-29T12:38:32.036Z,25.10
2022-11-29T12:39:32.066Z,26.10
2022-11-29T12:40:32.073Z,24.90
2022-11-29T12:41:32.200Z,24.50
2022-11-29T12:42:32.247Z,24.30
2022-11-29T12:43:32.096Z,24.80
2022-11-29T12:44:32.125Z,24.80
2022-11-29T12:45:32.166Z,24.80
2022-11-29T12:46:32.219Z,25.00
2022-11-29T12:47:36.432Z,24.70
2022-11-29T12:48:32.178Z,25.00
2022-11-29T12:49:32.213Z,23.00
2022-11-29T12:50:32.193Z,24.90
2022-11-29T12:51:32.207Z,24.60
2022-11-29T12:52:32.219Z,23.50
2022-11-29T12:53:38.246Z,24.20
2022-11-29T12:54:38.251Z,26.80
2022-11-29T12:55:38.234Z,25.40
2022-11-29T12:56:44.147Z,24.60
2022-11-29T12:57:44.386Z,26.40
2022-11-29T12:58:45.887Z,25.60
2022-11-29T12:59:44.312Z,24.60
2022-11-29T13:00:44.292Z,24.30
2022-11-29T13:01:44.404Z,26.20